Time;durP1;ratioP1;P1;durP2;ratioP2;P2;SDS_P1;SDS_P2;PMS_P1;PMS_P2;Temp;Humidity;BMP_temperature;BMP_pressure;BME280_temperature;BME280_humidity;BME280_pressure;Samples;Min_cycle;Max_cycle;Signal;HPM_P1;HPM_P2
2022/08/30 00:03:05;;;;;;;6.65;3.60;;;17.60;76.80;;;;;;4977101;28;20462;-78
2022/08/30 00:05:31;;;;;;;6.63;4.13;;;17.50;75.80;;;;;;4948989;28;20410;-79
2022/08/30 00:07:56;;;;;;;7.60;3.97;;;17.50;78.50;;;;;;4985960;28;20152;-78
2022/08/30 00:10:23;;;;;;;8.98;4.10;;;17.60;75.70;;;;;;4980502;28;20034;-79
2022/08/30 00:12:48;;;;;;;9.63;3.90;;;17.60;75.80;;;;;;4968970;28;20496;-79
2022/08/30 00:15:14;;;;;;;6.72;4.53;;;17.60;75.60;;;;;;4971981;28;20120;-79
2022/08/30 00:17:40;;;;;;;12.40;4.70;;;17.50;79.80;;;;;;4963402;28;20109;-78
2022/08/30 00:20:07;;;;;;;8.75;4.25;;;17.50;75.10;;;;;;4967465;28;20037;-79
2022/08/30 00:22:33;;;;;;;6.85;4.28;;;17.60;73.80;;;;;;4971363;28;20449;-78
2022/08/30 00:25:02;;;;;;;8.27;4.18;;;17.50;76.10;;;;;;4966389;28;20041;-79
2022/08/30 00:27:28;;;;;;;6.75;3.90;;;17.50;76.40;;;;;;4966077;28;20036;-78
2022/08/30 00:29:54;;;;;;;15.25;4.50;;;17.50;77.70;;;;;;4965978;28;20117;-78
2022/08/30 00:32:20;;;;;;;9.60;5.03;;;17.50;77.40;;;;;;4962169;28;20038;-80
2022/08/30 00:34:47;;;;;;;10.65;6.45;;;17.40;77.20;;;;;;4977661;28;20130;-78
2022/08/30 00:37:12;;;;;;;7.53;4.43;;;17.40;76.70;;;;;;4980085;28;20034;-78
2022/08/30 00:39:38;;;;;;;4.95;3.85;;;17.40;78.00;;;;;;4977888;28;20088;-79
2022/08/30 00:42:04;;;;;;;10.45;4.40;;;17.40;78.90;;;;;;4954563;28;20026;-77
2022/08/30 00:44:29;;;;;;;7.45;4.20;;;17.30;80.40;;;;;;4979206;28;20065;-79
2022/08/30 00:46:55;;;;;;;5.47;3.92;;;17.30;78.50;;;;;;4975629;28;20438;-78
2022/08/30 00:49:21;;;;;;;9.25;4.32;;;17.30;80.40;;;;;;4981287;28;20034;-79
2022/08/30 00:51:46;;;;;;;9.82;4.28;;;17.30;80.80;;;;;;4971256;28;20505;-79
2022/08/30 00:54:12;;;;;;;9.50;4.68;;;17.20;79.30;;;;;;4970700;28;20463;-77
2022/08/30 00:56:37;;;;;;;14.48;5.28;;;17.20;80.30;;;;;;4963846;28;21109;-79
2022/08/30 00:59:03;;;;;;;8.43;4.40;;;17.20;80.60;;;;;;4974905;28;20049;-78
2022/08/30 01:01:29;;;;;;;6.68;4.32;;;17.20;80.70;;;;;;4980023;28;20049;-79
2022/08/30 01:03:54;;;;;;;11.70;4.28;;;17.20;83.70;;;;;;4977513;28;20052;-79
2022/08/30 01:06:20;;;;;;;10.00;4.13;;;17.30;84.10;;;;;;4973420;28;20018;-78
2022/08/30 01:08:46;;;;;;;9.25;4.25;;;17.20;82.60;;;;;;4983853;28;20022;-78
2022/08/30 01:11:15;;;;;;;8.13;4.28;;;17.20;83.70;;;;;;4972214;28;20371;-78
2022/08/30 01:13:41;;;;;;;10.73;4.40;;;17.20;84.40;;;;;;4948608;28;20034;-78
2022/08/30 01:16:07;;;;;;;7.40;3.92;;;17.20;84.10;;;;;;4965106;28;20034;-78
2022/08/30 01:18:33;;;;;;;6.80;3.78;;;17.10;85.70;;;;;;4981359;28;20246;-78
2022/08/30 01:21:05;;;;;;;8.45;3.97;;;17.10;88.10;;;;;;4966053;28;20034;-78
2022/08/30 01:23:31;;;;;;;5.25;3.92;;;17.10;90.60;;;;;;4980975;28;20030;-78
2022/08/30 01:25:57;;;;;;;6.30;4.00;;;17.10;86.70;;;;;;4974300;28;20049;-77
2022/08/30 01:28:24;;;;;;;7.80;3.80;;;17.10;87.30;;;;;;4974615;28;20482;-79
2022/08/30 01:30:50;;;;;;;7.43;3.60;;;17.10;90.10;;;;;;4956332;28;20541;-79
2022/08/30 01:33:17;;;;;;;6.63;4.43;;;17.10;89.50;;;;;;4958117;28;20497;-78
2022/08/30 01:35:43;;;;;;;8.07;3.47;;;17.10;90.40;;;;;;4974081;28;20040;-79
2022/08/30 01:38:09;;;;;;;7.53;4.05;;;17.10;88.80;;;;;;4990604;28;20439;-78
2022/08/30 01:40:35;;;;;;;10.45;3.80;;;17.00;90.00;;;;;;4952808;28;20038;-78
2022/08/30 01:43:01;;;;;;;6.18;3.50;;;17.00;90.00;;;;;;4974150;28;20481;-78
2022/08/30 01:45:26;;;;;;;4.57;3.10;;;17.00;90.80;;;;;;4967229;28;20089;-78
2022/08/30 01:47:52;;;;;;;8.65;4.03;;;16.90;90.60;;;;;;4973580;28;20395;-78
2022/08/30 01:50:18;;;;;;;6.63;4.05;;;17.00;90.20;;;;;;4983969;28;20061;-77
2022/08/30 01:52:43;;;;;;;6.00;3.58;;;17.00;90.70;;;;;;4971005;28;20029;-78
2022/08/30 01:55:09;;;;;;;7.03;3.63;;;17.00;91.00;;;;;;4969870;28;20034;-78
2022/08/30 01:57:34;;;;;;;7.15;3.60;;;17.00;90.60;;;;;;4955927;28;20125;-79
2022/08/30 02:00:00;;;;;;;6.22;3.53;;;17.00;90.80;;;;;;4973001;28;20034;-78
2022/08/30 02:02:26;;;;;;;8.55;4.13;;;16.90;90.80;;;;;;4983645;28;20050;-78
2022/08/30 02:04:52;;;;;;;3.80;3.25;;;16.90;92.20;;;;;;4973482;28;20459;-78
2022/08/30 02:07:19;;;;;;;6.45;3.35;;;16.90;91.40;;;;;;4985190;28;20116;-78
2022/08/30 02:09:45;;;;;;;6.82;3.50;;;17.00;91.20;;;;;;4960013;28;20046;-79
2022/08/30 02:12:10;;;;;;;4.80;3.50;;;16.90;91.10;;;;;;4970182;28;20164;-79
2022/08/30 02:14:36;;;;;;;7.05;3.45;;;16.90;91.10;;;;;;4988928;28;20491;-77
2022/08/30 02:17:03;;;;;;;6.57;3.08;;;16.90;91.90;;;;;;4983256;28;20452;-79
2022/08/30 02:19:29;;;;;;;7.60;3.45;;;16.80;91.30;;;;;;4956608;28;20251;-79
2022/08/30 02:21:54;;;;;;;7.65;3.50;;;16.80;91.90;;;;;;4955723;28;20026;-78
2022/08/30 02:24:20;;;;;;;5.30;3.30;;;16.80;91.70;;;;;;4981055;28;20034;-77
2022/08/30 02:26:45;;;;;;;5.32;3.28;;;16.80;92.20;;;;;;4958837;28;20113;-78
2022/08/30 02:29:11;;;;;;;6.28;3.47;;;16.80;91.50;;;;;;4970659;28;20030;-78
2022/08/30 02:31:37;;;;;;;8.20;3.30;;;16.80;91.90;;;;;;4983641;28;20242;-78
2022/08/30 02:34:03;;;;;;;5.32;3.30;;;16.80;93.40;;;;;;4982537;28;20022;-78
2022/08/30 02:36:28;;;;;;;4.10;3.15;;;16.80;93.20;;;;;;4984059;28;20026;-77
2022/08/30 02:38:54;;;;;;;11.52;3.85;;;16.80;93.40;;;;;;4973543;28;20120;-78
2022/08/30 02:41:20;;;;;;;6.65;3.55;;;16.90;94.00;;;;;;4952913;28;20666;-82
2022/08/30 02:43:45;;;;;;;4.43;3.55;;;16.90;93.60;;;;;;4958374;28;20550;-83
2022/08/30 02:46:11;;;;;;;7.70;3.45;;;16.90;92.60;;;;;;4986829;28;20037;-83
2022/08/30 02:48:36;;;;;;;5.30;3.30;;;16.80;93.60;;;;;;4965281;28;20042;-83
2022/08/30 02:51:07;;;;;;;5.45;3.40;;;16.80;93.00;;;;;;4983971;28;20034;-83
2022/08/30 02:53:32;;;;;;;7.40;3.92;;;16.80;93.40;;;;;;4969106;28;20144;-83
2022/08/30 02:55:58;;;;;;;4.57;3.55;;;16.80;94.70;;;;;;4979930;28;20140;-78
2022/08/30 02:58:23;;;;;;;4.72;3.08;;;16.80;94.60;;;;;;4981376;28;20339;-83
2022/08/30 03:00:49;;;;;;;8.07;4.15;;;16.80;94.00;;;;;;4964470;28;20081;-83
2022/08/30 03:03:15;;;;;;;6.82;3.60;;;16.80;93.20;;;;;;4979356;28;20117;-82
2022/08/30 03:05:40;;;;;;;7.05;3.67;;;16.70;93.10;;;;;;4973410;28;20320;-82
2022/08/30 03:08:06;;;;;;;5.97;3.30;;;16.70;93.50;;;;;;4956731;28;20326;-82
2022/08/30 03:10:32;;;;;;;4.22;3.30;;;16.70;94.00;;;;;;4962844;28;20038;-83
2022/08/30 03:12:58;;;;;;;5.97;3.83;;;16.70;94.10;;;;;;4969085;28;20428;-83
2022/08/30 03:15:24;;;;;;;5.97;3.42;;;16.60;94.10;;;;;;4964113;28;20629;-83
2022/08/30 03:17:51;;;;;;;5.63;3.38;;;16.60;93.70;;;;;;4976104;28;20053;-83
2022/08/30 03:20:17;;;;;;;6.60;2.58;;;16.60;93.90;;;;;;4971019;28;20034;-83
2022/08/30 03:22:42;;;;;;;4.93;2.90;;;16.60;93.40;;;;;;4982991;28;20147;-83
2022/08/30 03:25:08;;;;;;;7.63;3.05;;;16.60;92.70;;;;;;4973325;28;20046;-83
2022/08/30 03:27:34;;;;;;;7.60;3.75;;;16.50;93.70;;;;;;4982358;28;20496;-84
2022/08/30 03:29:59;;;;;;;3.83;3.22;;;16.40;94.00;;;;;;4989053;28;20121;-83
2022/08/30 03:32:25;;;;;;;4.90;3.70;;;16.40;94.50;;;;;;4954998;28;20022;-82
2022/08/30 03:34:50;;;;;;;8.57;3.78;;;16.40;95.00;;;;;;4958516;28;20037;-83
2022/08/30 03:37:16;;;;;;;6.03;3.20;;;16.30;94.90;;;;;;4974194;28;20083;-82
2022/08/30 03:39:44;;;;;;;4.25;3.63;;;16.30;93.90;;;;;;4973832;28;20348;-83
2022/08/30 03:42:10;;;;;;;4.35;3.42;;;16.30;95.30;;;;;;4987515;28;20133;-78
2022/08/30 03:44:35;;;;;;;3.35;3.03;;;16.20;94.60;;;;;;4956532;28;20141;-78
2022/08/30 03:47:03;;;;;;;7.00;3.53;;;16.20;96.60;;;;;;4979871;28;20492;-78
2022/08/30 03:49:29;;;;;;;4.97;3.70;;;16.20;95.00;;;;;;4968897;28;20034;-82
2022/08/30 03:51:55;;;;;;;4.10;3.67;;;16.10;94.80;;;;;;4965988;28;20039;-83
2022/08/30 03:54:20;;;;;;;6.03;3.83;;;16.10;94.20;;;;;;4952910;28;20034;-82
2022/08/30 03:56:46;;;;;;;5.97;4.00;;;16.10;97.50;;;;;;4964737;28;20042;-77
2022/08/30 03:59:11;;;;;;;6.47;3.88;;;16.00;94.90;;;;;;4955639;28;20038;-78
2022/08/30 04:01:37;;;;;;;4.68;3.92;;;16.00;94.80;;;;;;4947982;28;20125;-78
2022/08/30 04:04:02;;;;;;;5.25;3.55;;;16.00;94.90;;;;;;4996769;28;20060;-78
2022/08/30 04:06:28;;;;;;;3.85;3.50;;;16.00;96.30;;;;;;4971254;28;20512;-79
2022/08/30 04:08:54;;;;;;;6.65;3.78;;;16.00;95.40;;;;;;4968652;28;20033;-79
2022/08/30 04:11:20;;;;;;;5.18;3.80;;;16.00;97.80;;;;;;4964950;28;20033;-79
2022/08/30 04:13:48;;;;;;;6.00;3.85;;;16.00;95.40;;;;;;4966541;28;20497;-78
2022/08/30 04:16:13;;;;;;;7.82;4.05;;;15.90;95.40;;;;;;4955500;28;20053;-78
2022/08/30 04:18:39;;;;;;;4.30;3.45;;;16.00;98.10;;;;;;4977506;28;20026;-79
2022/08/30 04:21:05;;;;;;;5.03;3.80;;;15.90;97.60;;;;;;4971325;28;20662;-79
2022/08/30 04:23:30;;;;;;;10.32;4.80;;;15.90;95.70;;;;;;4965511;28;20030;-78
2022/08/30 04:25:56;;;;;;;5.53;3.97;;;15.80;96.20;;;;;;4955608;28;20123;-77
2022/08/30 04:28:22;;;;;;;5.43;4.20;;;15.80;97.30;;;;;;4977922;28;20407;-77
2022/08/30 04:30:47;;;;;;;6.13;4.10;;;15.80;95.90;;;;;;4967222;28;20449;-79
2022/08/30 04:33:13;;;;;;;6.10;4.10;;;15.70;95.70;;;;;;4968205;28;20367;-79
2022/08/30 04:35:43;;;;;;;9.50;4.45;;;15.70;95.70;;;;;;4963519;28;20447;-79
2022/08/30 04:38:09;;;;;;;8.05;4.28;;;15.70;97.20;;;;;;4975340;28;20053;-83
2022/08/30 04:40:35;;;;;;;6.45;4.45;;;15.70;97.30;;;;;;4970734;28;20033;-83
2022/08/30 04:43:01;;;;;;;6.78;4.07;;;15.60;96.40;;;;;;4973084;28;20120;-83
2022/08/30 04:45:26;;;;;;;6.70;4.30;;;15.60;96.40;;;;;;4967065;28;20497;-83
2022/08/30 04:47:52;;;;;;;9.27;4.90;;;15.50;96.50;;;;;;4983658;28;20045;-83
2022/08/30 04:50:18;;;;;;;6.10;4.32;;;15.50;97.00;;;;;;4966889;28;20052;-83
2022/08/30 04:52:44;;;;;;;6.63;4.40;;;15.40;96.30;;;;;;4970071;28;20096;-83
2022/08/30 04:55:10;;;;;;;6.40;4.43;;;15.50;97.50;;;;;;4955502;28;20070;-84
2022/08/30 04:57:36;;;;;;;7.97;4.55;;;15.40;97.60;;;;;;4956398;28;20841;-83
2022/08/30 05:00:04;;;;;;;6.80;4.40;;;15.30;96.90;;;;;;4962964;28;20030;-83
2022/08/30 05:02:29;;;;;;;9.70;4.90;;;15.30;97.40;;;;;;4971873;28;20033;-83
2022/08/30 05:07:39;;;;;;;6.63;4.68;;;15.40;97.30;;;;;;4980668;28;20068;-83
2022/08/30 05:10:05;;;;;;;7.50;5.15;;;15.40;99.10;;;;;;4982371;28;20061;-83
2022/08/30 05:12:31;;;;;;;9.10;5.07;;;15.40;99.00;;;;;;4965456;28;20564;-84
2022/08/30 05:14:57;;;;;;;10.63;5.35;;;15.30;96.90;;;;;;4983834;28;20038;-82
2022/08/30 05:17:23;;;;;;;9.95;4.80;;;15.30;97.30;;;;;;4976669;28;20092;-84
2022/08/30 05:19:49;;;;;;;8.95;5.30;;;15.30;97.30;;;;;;4978362;28;20513;-84
2022/08/30 05:22:14;;;;;;;17.35;5.72;;;15.30;97.00;;;;;;4977403;28;20034;-85
2022/08/30 05:24:40;;;;;;;10.68;5.82;;;15.30;98.10;;;;;;4960719;28;20034;-83
2022/08/30 05:27:05;;;;;;;8.52;5.13;;;15.40;99.10;;;;;;4963508;28;20044;-85
2022/08/30 05:29:31;;;;;;;7.10;4.93;;;15.50;99.90;;;;;;4971413;28;20035;-83
2022/08/30 05:31:56;;;;;;;8.52;5.78;;;15.50;98.30;;;;;;4969518;28;20030;-85
2022/08/30 05:34:22;;;;;;;8.48;5.10;;;15.50;97.90;;;;;;4969220;28;20033;-84
2022/08/30 05:36:48;;;;;;;12.48;5.60;;;15.50;98.00;;;;;;4967322;28;20027;-83
2022/08/30 05:39:13;;;;;;;7.63;4.75;;;15.60;98.40;;;;;;4967897;28;20034;-83
2022/08/30 05:41:39;;;;;;;10.95;5.68;;;15.70;97.90;;;;;;4979518;28;20132;-82
2022/08/30 05:44:05;;;;;;;11.70;5.38;;;15.60;98.30;;;;;;4951094;28;20579;-82
2022/08/30 05:46:34;;;;;;;9.93;5.88;;;15.60;98.50;;;;;;4968685;28;20498;-81
2022/08/30 05:49:00;;;;;;;7.43;5.20;;;15.60;97.70;;;;;;4978932;28;20069;-82
2022/08/30 05:51:27;;;;;;;10.27;5.65;;;15.60;97.40;;;;;;4969532;28;20030;-82
2022/08/30 05:53:53;;;;;;;11.40;6.10;;;15.60;97.80;;;;;;4984882;28;20354;-82
2022/08/30 05:56:21;;;;;;;8.02;5.90;;;15.70;97.50;;;;;;4952188;28;20030;-82
2022/08/30 05:58:46;;;;;;;7.30;6.00;;;15.60;97.60;;;;;;4966249;28;20031;-82
2022/08/30 06:01:32;;;;;;;8.65;5.50;;;15.70;97.90;;;;;;4958690;28;20196;-82
2022/08/30 06:04:00;;;;;;;7.50;5.43;;;15.80;98.00;;;;;;4967546;28;20557;-81
2022/08/30 06:06:28;;;;;;;9.38;5.85;;;15.90;98.20;;;;;;4982208;28;20058;-83
2022/08/30 06:08:53;;;;;;;9.07;5.70;;;16.00;97.80;;;;;;4973590;28;20450;-82
2022/08/30 06:11:20;;;;;;;8.43;5.75;;;16.10;99.20;;;;;;4963372;28;20056;-82
2022/08/30 06:13:46;;;;;;;7.05;5.32;;;16.20;97.70;;;;;;4981712;28;20406;-82
2022/08/30 06:16:12;;;;;;;13.98;5.90;;;16.30;98.00;;;;;;4956163;28;20034;-83
2022/08/30 06:18:37;;;;;;;15.73;5.95;;;16.30;97.70;;;;;;4967149;28;20060;-84
2022/08/30 06:21:03;;;;;;;7.70;5.30;;;16.40;97.80;;;;;;4970556;28;20022;-83
2022/08/30 06:23:29;;;;;;;9.05;6.05;;;16.40;97.90;;;;;;4966010;28;20111;-83
2022/08/30 06:25:55;;;;;;;9.73;6.95;;;16.50;98.00;;;;;;4976371;28;20053;-82
2022/08/30 06:28:20;;;;;;;8.50;5.88;;;16.60;98.30;;;;;;4982248;28;20087;-82
2022/08/30 06:30:47;;;;;;;9.18;5.95;;;16.70;98.30;;;;;;4964631;28;20030;-82
2022/08/30 06:33:12;;;;;;;9.82;6.50;;;16.80;98.00;;;;;;4966339;28;20585;-82
2022/08/30 06:35:38;;;;;;;9.77;6.35;;;16.90;98.10;;;;;;4964278;28;20089;-83
2022/08/30 06:38:03;;;;;;;11.40;6.65;;;17.00;97.90;;;;;;4963040;28;20034;-83
2022/08/30 06:40:29;;;;;;;16.38;6.18;;;17.20;97.90;;;;;;4966872;28;20080;-82
2022/08/30 06:42:55;;;;;;;9.90;6.55;;;17.30;97.80;;;;;;4969198;28;20037;-82
2022/08/30 06:45:20;;;;;;;12.32;7.10;;;17.50;97.90;;;;;;4969809;28;20125;-81
2022/08/30 06:47:46;;;;;;;7.88;5.38;;;17.60;97.90;;;;;;4970196;28;20037;-82
2022/08/30 06:50:13;;;;;;;7.88;5.47;;;17.70;97.30;;;;;;4966354;28;20576;-82
2022/08/30 06:52:40;;;;;;;10.70;6.47;;;17.80;97.80;;;;;;4983005;28;20057;-82
2022/08/30 06:55:05;;;;;;;10.50;6.38;;;17.90;97.70;;;;;;4973909;28;20077;-83
2022/08/30 06:57:31;;;;;;;11.15;6.63;;;18.00;97.60;;;;;;4976268;28;20034;-82
2022/08/30 06:59:57;;;;;;;12.52;5.97;;;18.10;97.70;;;;;;4981822;28;20449;-83
2022/08/30 07:02:22;;;;;;;6.43;5.60;;;18.20;97.60;;;;;;4979228;28;20043;-83
2022/08/30 07:04:48;;;;;;;8.45;5.20;;;18.30;97.40;;;;;;4971022;28;20486;-83
2022/08/30 07:07:14;;;;;;;9.48;5.95;;;18.40;97.40;;;;;;4971871;28;20512;-82
2022/08/30 07:09:42;;;;;;;8.23;5.88;;;18.50;97.30;;;;;;4970771;28;20036;-83
2022/08/30 07:12:08;;;;;;;7.97;5.78;;;18.60;97.20;;;;;;4952645;28;20085;-86
2022/08/30 07:14:34;;;;;;;8.43;5.53;;;18.70;97.10;;;;;;4970903;28;20085;-83
2022/08/30 07:17:00;;;;;;;8.43;5.13;;;18.80;97.10;;;;;;4986400;28;20049;-84
2022/08/30 07:19:25;;;;;;;11.98;6.07;;;18.90;96.60;;;;;;4968905;28;20026;-85
2022/08/30 07:21:51;;;;;;;9.52;5.55;;;19.00;96.70;;;;;;4965775;28;20108;-85
2022/08/30 07:24:17;;;;;;;9.32;6.18;;;19.00;96.70;;;;;;4976244;28;20048;-84
2022/08/30 07:26:47;;;;;;;15.15;6.35;;;19.20;96.90;;;;;;4967534;28;20503;-83
2022/08/30 07:29:13;;;;;;;8.45;5.45;;;19.20;96.70;;;;;;4955580;28;20427;-84
2022/08/30 07:31:39;;;;;;;8.50;5.60;;;19.30;96.50;;;;;;4954724;28;20168;-82
2022/08/30 07:34:05;;;;;;;9.98;5.55;;;19.40;96.10;;;;;;4968932;28;20026;-84
2022/08/30 07:36:30;;;;;;;11.95;5.65;;;19.50;96.30;;;;;;4971406;28;20117;-83
2022/08/30 07:38:56;;;;;;;6.45;5.60;;;19.60;96.20;;;;;;4978959;28;20034;-84
2022/08/30 07:41:34;;;;;;;12.75;4.80;;;19.70;95.50;;;;;;4978986;28;20038;-83
2022/08/30 07:43:59;;;;;;;6.88;5.72;;;19.70;95.60;;;;;;4950295;28;20030;-84
2022/08/30 07:46:25;;;;;;;8.75;5.47;;;19.80;95.70;;;;;;4963951;28;20034;-83
2022/08/30 07:48:53;;;;;;;8.77;6.03;;;19.80;95.70;;;;;;4964473;28;20033;-83
2022/08/30 07:51:19;;;;;;;9.00;5.57;;;19.90;95.50;;;;;;4959236;28;20042;-83
2022/08/30 07:53:46;;;;;;;7.45;5.63;;;20.00;95.40;;;;;;4984009;28;20163;-84
2022/08/30 07:56:12;;;;;;;5.63;4.88;;;20.00;95.30;;;;;;4970250;28;20034;-84
2022/08/30 07:58:43;;;;;;;7.47;5.78;;;20.10;95.20;;;;;;4945560;28;20030;-83
2022/08/30 08:01:10;;;;;;;6.03;4.47;;;20.20;95.00;;;;;;4975416;28;20383;-82
2022/08/30 08:03:36;;;;;;;8.55;5.15;;;20.30;94.90;;;;;;4965051;28;20552;-84
2022/08/30 08:06:02;;;;;;;6.18;4.72;;;20.30;94.80;;;;;;4980090;28;20183;-83
2022/08/30 08:08:28;;;;;;;10.13;4.75;;;20.40;94.60;;;;;;4953702;28;20417;-84
2022/08/30 08:10:54;;;;;;;7.30;4.85;;;20.50;94.50;;;;;;4981204;28;20034;-83
2022/08/30 08:13:19;;;;;;;5.25;4.40;;;20.60;94.50;;;;;;4967317;28;20026;-84
2022/08/30 08:15:45;;;;;;;7.68;5.00;;;20.70;94.40;;;;;;4970569;28;20030;-84
2022/08/30 08:18:11;;;;;;;6.10;4.57;;;20.80;94.40;;;;;;4966251;28;20045;-84
2022/08/30 08:20:36;;;;;;;8.60;4.85;;;20.90;94.20;;;;;;4983892;28;20192;-84
2022/08/30 08:23:02;;;;;;;5.70;4.80;;;21.00;94.10;;;;;;4980636;28;20034;-84
2022/08/30 08:25:28;;;;;;;8.93;4.82;;;21.20;93.80;;;;;;4970567;28;20034;-84
2022/08/30 08:27:53;;;;;;;10.57;6.03;;;21.30;93.80;;;;;;4966616;28;20030;-85
2022/08/30 08:30:20;;;;;;;6.07;5.00;;;21.40;93.30;;;;;;4947886;28;20084;-84
2022/08/30 08:32:46;;;;;;;8.70;4.18;;;21.60;93.40;;;;;;4953052;28;20038;-84
2022/08/30 08:35:12;;;;;;;10.38;4.68;;;21.70;93.10;;;;;;4965809;28;20038;-85
2022/08/30 08:37:38;;;;;;;8.57;4.60;;;21.80;93.00;;;;;;4955504;28;20498;-85
2022/08/30 08:40:04;;;;;;;8.25;4.22;;;21.90;92.80;;;;;;4965758;28;20048;-82
2022/08/30 08:42:47;;;;;;;4.68;3.92;;;22.00;92.40;;;;;;4969073;28;20363;-85
2022/08/30 08:45:16;;;;;;;4.72;3.95;;;22.20;92.40;;;;;;4968024;28;20148;-85
2022/08/30 08:47:57;;;;;;;8.18;4.57;;;22.20;92.00;;;;;;4976473;28;20421;-85
2022/08/30 08:50:23;;;;;;;6.50;3.92;;;22.40;92.10;;;;;;4979214;28;20052;-85
2022/08/30 08:55:44;;;;;;;5.22;4.05;;;22.50;91.70;;;;;;4981433;28;20453;-85
2022/08/30 08:58:23;;;;;;;5.75;4.55;;;22.60;91.60;;;;;;4979072;28;20045;-84
2022/08/30 09:00:49;;;;;;;6.55;3.50;;;22.70;91.30;;;;;;4951634;28;20038;-85
2022/08/30 09:03:15;;;;;;;7.13;3.85;;;22.80;91.20;;;;;;4979985;28;20414;-85
2022/08/30 09:05:42;;;;;;;5.63;3.35;;;22.90;91.00;;;;;;4969787;28;20038;-85
2022/08/30 09:08:09;;;;;;;8.85;4.50;;;23.10;90.90;;;;;;4943034;28;20358;-86
2022/08/30 09:10:35;;;;;;;5.78;3.78;;;23.30;90.10;;;;;;4960129;28;20033;-86
2022/08/30 09:13:00;;;;;;;6.18;3.92;;;23.40;90.00;;;;;;4969025;28;20041;-87
2022/08/30 09:15:28;;;;;;;6.97;3.90;;;23.50;90.10;;;;;;4967945;28;20034;-86
2022/08/30 09:18:04;;;;;;;5.57;4.20;;;23.60;90.00;;;;;;4952810;28;20033;-85
2022/08/30 09:20:31;;;;;;;6.78;3.67;;;23.60;88.30;;;;;;4982363;28;20049;-87
2022/08/30 09:22:57;;;;;;;8.70;4.10;;;23.70;88.10;;;;;;4963718;28;20173;-85
2022/08/30 09:25:28;;;;;;;5.40;3.28;;;23.90;88.30;;;;;;4965529;28;20526;-86
2022/08/30 09:27:54;;;;;;;6.28;3.30;;;24.00;87.00;;;;;;4976977;28;20034;-79
2022/08/30 09:30:27;;;;;;;5.53;3.40;;;24.10;87.00;;;;;;4947173;28;20030;-79
2022/08/30 09:32:57;;;;;;;4.88;3.38;;;24.10;87.30;;;;;;4968274;28;20406;-79
2022/08/30 09:35:25;;;;;;;6.07;4.43;;;24.20;87.80;;;;;;4963965;28;20049;-80
2022/08/30 09:37:56;;;;;;;5.88;2.97;;;24.40;86.90;;;;;;4979322;28;20141;-78
2022/08/30 09:40:26;;;;;;;5.70;3.53;;;24.50;86.50;;;;;;4977470;28;20035;-78
2022/08/30 09:43:00;;;;;;;5.95;3.75;;;24.70;85.10;;;;;;4969767;28;20441;-78
2022/08/30 09:45:30;;;;;;;6.53;3.22;;;24.90;85.10;;;;;;4976307;28;20038;-79
2022/08/30 09:47:56;;;;;;;10.15;3.70;;;24.90;84.10;;;;;;4974772;28;20124;-79
2022/08/30 09:50:21;;;;;;;4.55;3.15;;;25.00;83.60;;;;;;4971996;28;20054;-80
2022/08/30 09:53:11;;;;;;;5.05;2.80;;;25.10;84.20;;;;;;4980936;28;20414;-80
2022/08/30 09:55:48;;;;;;;8.82;3.53;;;25.20;83.70;;;;;;4997251;28;20461;-79
2022/08/30 09:58:45;;;;;;;4.05;3.15;;;25.30;82.00;;;;;;4965665;28;20545;-80
2022/08/30 10:01:13;;;;;;;9.50;3.80;;;25.50;80.90;;;;;;4978159;28;20038;-79
2022/08/30 10:04:17;;;;;;;7.88;3.08;;;25.50;80.50;;;;;;4966475;28;20506;-82
2022/08/30 10:06:45;;;;;;;4.53;3.72;;;25.60;79.70;;;;;;4972025;28;20033;-83
2022/08/30 10:09:31;;;;;;;13.50;4.18;;;25.70;80.10;;;;;;4982908;28;20065;-82
2022/08/30 10:12:47;;;;;;;3.17;2.85;;;25.80;80.40;;;;;;4989074;28;20030;-83
2022/08/30 10:15:26;;;;;;;6.05;3.30;;;26.00;79.40;;;;;;4943036;28;20401;-84
2022/08/30 10:17:54;;;;;;;7.75;3.80;;;26.10;79.60;;;;;;4974163;28;20338;-84
2022/08/30 10:20:51;;;;;;;4.85;3.25;;;26.30;77.20;;;;;;4976024;28;20382;-84
2022/08/30 10:23:37;;;;;;;3.70;2.90;;;26.30;76.60;;;;;;4972579;28;20034;-83
2022/08/30 10:26:10;;;;;;;6.38;2.92;;;26.40;76.40;;;;;;4972454;28;20037;-83
2022/08/30 10:28:50;;;;;;;5.53;3.33;;;26.40;75.70;;;;;;4971516;28;20034;-83
2022/08/30 10:31:21;;;;;;;8.00;3.78;;;26.60;75.70;;;;;;4956091;28;20451;-82
2022/08/30 10:33:49;;;;;;;3.17;2.60;;;26.60;73.80;;;;;;4987328;28;20026;-83
2022/08/30 10:36:24;;;;;;;7.35;3.30;;;26.60;73.20;;;;;;4948240;28;20049;-83
2022/08/30 10:38:51;;;;;;;4.32;3.15;;;26.60;74.20;;;;;;4969001;28;20347;-83
2022/08/30 10:41:37;;;;;;;4.78;2.85;;;26.80;72.50;;;;;;4968554;28;20034;-83
2022/08/30 10:44:05;;;;;;;7.28;3.35;;;26.90;73.00;;;;;;4980363;28;20370;-83
2022/08/30 10:47:08;;;;;;;5.93;2.47;;;27.00;73.50;;;;;;4625797;28;9999688;-84
2022/08/30 10:49:39;;;;;;;5.97;2.47;;;26.90;72.30;;;;;;4987666;28;20190;-83
2022/08/30 10:52:22;;;;;;;6.00;2.60;;;26.90;71.90;;;;;;4972378;28;20037;-84
2022/08/30 10:54:57;;;;;;;4.82;2.53;;;26.90;71.90;;;;;;4954372;28;20065;-84
2022/08/30 10:57:23;;;;;;;;;;;26.90;70.10;;;;;;4981612;28;20033;-84
2022/08/30 11:00:00;;;;;;;15.80;2.88;;;27.00;69.70;;;;;;4984597;28;19909;-84
2022/08/30 11:02:47;;;;;;;6.45;2.42;;;27.10;71.90;;;;;;4966296;28;20026;-83
2022/08/30 11:05:34;;;;;;;4.75;3.28;;;27.40;70.30;;;;;;4975155;28;20353;-84
2022/08/30 11:08:08;;;;;;;6.75;2.85;;;27.50;69.80;;;;;;4998138;28;20042;-83
2022/08/30 11:10:46;;;;;;;4.55;2.45;;;27.40;67.50;;;;;;4968321;28;20278;-83
2022/08/30 11:13:41;;;;;;;2.60;2.03;;;27.40;69.00;;;;;;4982494;28;20037;-83
2022/08/30 11:16:09;;;;;;;5.28;2.00;;;27.40;67.90;;;;;;4970133;28;20382;-83
2022/08/30 11:18:52;;;;;;;9.73;2.38;;;27.40;68.90;;;;;;4965895;28;20092;-83
2022/08/30 11:21:19;;;;;;;4.32;2.20;;;27.60;69.20;;;;;;4971269;28;20046;-83
2022/08/30 11:24:11;;;;;;;3.40;2.13;;;27.70;68.50;;;;;;4978248;28;20498;-83
2022/08/30 11:26:49;;;;;;;5.18;2.22;;;28.00;70.00;;;;;;4968559;28;20414;-83
2022/08/30 11:29:45;;;;;;;4.97;2.22;;;28.20;68.40;;;;;;4986401;28;20124;-83
2022/08/30 11:32:11;;;;;;;3.20;1.98;;;28.30;68.30;;;;;;4987634;28;20397;-83
2022/08/30 11:34:46;;;;;;;5.15;2.05;;;28.40;66.20;;;;;;4983572;28;20046;-83
2022/08/30 11:37:36;;;;;;;3.80;2.00;;;28.70;65.20;;;;;;4980873;28;20642;-83
2022/08/30 11:40:21;;;;;;;4.57;2.03;;;29.00;65.90;;;;;;4978453;28;20091;-83
2022/08/30 11:42:48;;;;;;;5.57;2.28;;;29.20;64.40;;;;;;4986185;28;20088;-82
2022/08/30 11:45:22;;;;;;;5.47;2.13;;;29.40;62.60;;;;;;4954072;28;20060;-82
2022/08/30 11:47:52;;;;;;;2.20;2.08;;;29.60;63.70;;;;;;4985297;28;20041;-81
2022/08/30 11:50:18;;;;;;;3.92;2.17;;;29.70;63.90;;;;;;4982609;28;20044;-81
2022/08/30 11:53:04;;;;;;;4.38;2.17;;;29.80;63.90;;;;;;4985035;28;20030;-81
2022/08/30 11:56:09;;;;;;;6.65;2.20;;;29.90;60.40;;;;;;4981386;28;20037;-80
2022/08/30 11:58:56;;;;;;;3.85;1.90;;;30.10;61.80;;;;;;4946771;28;20133;-80
2022/08/30 12:01:25;;;;;;;3.70;2.10;;;30.30;60.60;;;;;;4982569;28;20510;-80
2022/08/30 12:04:00;;;;;;;3.97;2.40;;;30.40;58.80;;;;;;4983800;28;20434;-79
2022/08/30 12:06:44;;;;;;;3.40;2.22;;;30.40;58.70;;;;;;4981453;28;20417;-79
2022/08/30 12:09:22;;;;;;;6.18;1.70;;;30.50;58.00;;;;;;4960172;28;20059;-79
2022/08/30 12:12:03;;;;;;;2.80;1.70;;;30.50;59.20;;;;;;4984563;28;20066;-78
2022/08/30 12:14:53;;;;;;;6.93;1.80;;;30.60;59.10;;;;;;4968771;28;20395;-78
2022/08/30 12:20:27;;;;;;;6.38;1.90;;;30.60;58.50;;;;;;4981434;28;20049;-77
2022/08/30 12:22:53;;;;;;;4.93;2.03;;;30.50;59.10;;;;;;4952420;28;20057;-77
2022/08/30 12:25:31;;;;;;;5.07;1.88;;;30.50;58.30;;;;;;4976287;28;20034;-77
2022/08/30 12:28:13;;;;;;;4.47;2.00;;;30.60;58.40;;;;;;4967461;28;20030;-78
2022/08/30 12:30:39;;;;;;;7.25;2.67;;;30.60;57.70;;;;;;4958989;28;20041;-78
2022/08/30 12:33:08;;;;;;;5.18;2.20;;;30.60;57.90;;;;;;4956350;28;20144;-78
2022/08/30 12:35:33;;;;;;;2.35;2.00;;;30.50;56.20;;;;;;4967963;28;20046;-78
2022/08/30 12:38:01;;;;;;;9.43;2.17;;;30.50;57.20;;;;;;4969755;28;20092;-77
2022/08/30 12:40:29;;;;;;;4.45;2.55;;;30.50;55.70;;;;;;4966245;28;20070;-79
2022/08/30 12:43:00;;;;;;;2.95;2.03;;;30.60;56.50;;;;;;4975866;28;20406;-78
2022/08/30 12:45:38;;;;;;;2.45;1.60;;;30.60;55.40;;;;;;4957287;28;20057;-78
2022/08/30 12:48:06;;;;;;;3.08;2.40;;;30.50;55.40;;;;;;4961239;28;20397;-79
2022/08/30 12:50:53;;;;;;;4.13;2.20;;;30.60;55.10;;;;;;4958646;28;20058;-77
2022/08/30 12:53:31;;;;;;;4.28;2.15;;;30.60;55.40;;;;;;4976659;28;20038;-77
2022/08/30 12:56:03;;;;;;;6.45;2.33;;;30.70;54.80;;;;;;4969640;28;20034;-77
2022/08/30 12:58:48;;;;;;;6.55;2.67;;;30.70;54.50;;;;;;4963366;28;20770;-78
2022/08/30 13:01:34;;;;;;;5.72;2.28;;;30.70;53.70;;;;;;4978836;28;20510;-76
2022/08/30 13:04:19;;;;;;;5.80;2.10;;;30.70;53.60;;;;;;4963979;28;20152;-76
2022/08/30 13:06:52;;;;;;;3.92;3.17;;;30.70;54.50;;;;;;4976780;28;20434;-76